createdAt,value
2022-07-25T00:03:41.979Z,99.90
2022-07-25T00:07:39.979Z,99.90
2022-07-25T00:11:37.891Z,99.90
2022-07-25T00:15:35.021Z,99.90
2022-07-25T00:19:32.104Z,99.90
2022-07-25T00:23:29.331Z,99.90
2022-07-25T00:27:26.616Z,99.90
2022-07-25T00:31:26.191Z,99.90
2022-07-25T00:35:23.273Z,99.90
2022-07-25T00:39:20.363Z,99.90
2022-07-25T00:43:17.432Z,99.90
2022-07-25T00:47:14.499Z,99.90
2022-07-25T00:51:12.086Z,99.90
2022-07-25T00:55:09.953Z,99.90
2022-07-25T00:59:07.292Z,99.90
2022-07-25T01:03:07.134Z,99.90
2022-07-25T01:07:04.586Z,99.90
2022-07-25T01:11:01.937Z,99.90
2022-07-25T01:14:59.232Z,99.90
2022-07-25T01:18:56.449Z,99.90
2022-07-25T01:22:54.682Z,99.90
2022-07-25T01:26:52.026Z,99.90
2022-07-25T01:30:49.516Z,99.90
2022-07-25T01:34:46.545Z,99.90
2022-07-25T01:38:43.709Z,99.90
2022-07-25T01:42:41.716Z,99.90
2022-07-25T01:46:38.794Z,99.90
2022-07-25T01:50:36.004Z,99.90
2022-07-25T01:54:33.085Z,99.90
2022-07-25T01:58:30.197Z,99.90
2022-07-25T02:02:27.504Z,99.90
2022-07-25T02:06:24.584Z,99.90
2022-07-25T02:10:21.570Z,99.90
2022-07-25T02:14:18.721Z,99.90
2022-07-25T02:18:16.370Z,99.90
2022-07-25T02:22:13.391Z,99.90
2022-07-25T02:26:13.217Z,99.90
2022-07-25T02:30:10.911Z,99.90
2022-07-25T02:34:08.500Z,99.90
2022-07-25T02:38:05.794Z,99.90
2022-07-25T02:42:02.952Z,99.90
2022-07-25T02:46:00.212Z,99.90
2022-07-25T02:49:57.482Z,99.90
2022-07-25T02:53:57.904Z,99.90
2022-07-25T02:57:55.707Z,99.90
2022-07-25T03:01:52.757Z,99.90
2022-07-25T03:05:51.959Z,99.90
2022-07-25T03:09:49.194Z,99.90
2022-07-25T03:13:46.763Z,99.90
2022-07-25T03:17:43.929Z,99.90
2022-07-25T03:21:41.054Z,99.90
2022-07-25T03:25:38.168Z,99.90
2022-07-25T03:29:35.336Z,99.90
2022-07-25T03:33:32.366Z,99.90
2022-07-25T03:37:29.552Z,99.90
2022-07-25T03:41:28.010Z,99.90
2022-07-25T03:45:25.774Z,99.90
2022-07-25T03:49:23.065Z,99.90
2022-07-25T03:53:20.073Z,99.90
2022-07-25T03:57:17.130Z,99.90
2022-07-25T04:01:14.375Z,99.90
2022-07-25T04:05:11.587Z,99.90
2022-07-25T04:09:10.877Z,99.90
2022-07-25T04:13:10.095Z,99.90
2022-07-25T04:17:07.255Z,99.90
2022-07-25T04:21:06.392Z,99.90
2022-07-25T04:25:04.553Z,99.90
2022-07-25T04:29:03.701Z,99.90
2022-07-25T04:33:00.861Z,99.90
2022-07-25T04:36:57.871Z,99.90
2022-07-25T04:40:54.992Z,99.90
2022-07-25T04:44:51.990Z,99.90
2022-07-25T04:48:50.526Z,99.90
2022-07-25T04:52:47.783Z,99.90
2022-07-25T04:56:44.826Z,99.90
2022-07-25T05:00:42.043Z,99.90
2022-07-25T05:04:44.795Z,99.90
2022-07-25T05:08:42.413Z,99.90
2022-07-25T05:12:39.573Z,99.90
2022-07-25T05:16:36.656Z,99.90
2022-07-25T05:20:33.778Z,99.90
2022-07-25T05:24:35.197Z,99.90
2022-07-25T05:28:32.281Z,99.90
2022-07-25T05:32:29.387Z,99.90
2022-07-25T05:36:26.392Z,99.90
2022-07-25T05:40:24.347Z,99.90
2022-07-25T05:44:21.418Z,99.90
2022-07-25T05:48:18.598Z,99.90
2022-07-25T05:52:15.721Z,99.90
2022-07-25T05:56:12.704Z,99.90
2022-07-25T06:00:12.817Z,99.90
2022-07-25T06:04:10.348Z,99.90
2022-07-25T06:08:07.412Z,99.90
2022-07-25T06:12:05.081Z,99.90
2022-07-25T06:16:03.408Z,99.90
2022-07-25T06:20:00.777Z,99.90
2022-07-25T06:23:57.823Z,99.90
2022-07-25T06:27:54.813Z,99.90
2022-07-25T06:31:51.948Z,99.90
2022-07-25T06:35:51.245Z,99.90
2022-07-25T06:39:48.362Z,99.90
2022-07-25T06:43:45.345Z,99.90
2022-07-25T06:47:45.003Z,99.90
2022-07-25T06:51:42.016Z,99.90
2022-07-25T06:55:39.180Z,99.90
2022-07-25T06:59:36.335Z,99.90
2022-07-25T07:03:38.356Z,99.90
2022-07-25T07:07:35.524Z,99.90
2022-07-25T07:11:34.858Z,99.90
2022-07-25T07:15:34.385Z,99.90
2022-07-25T07:19:31.705Z,99.90
2022-07-25T07:23:32.313Z,99.90
2022-07-25T07:27:30.082Z,99.90
2022-07-25T07:31:27.146Z,99.90
2022-07-25T07:35:25.467Z,99.90
2022-07-25T07:39:24.587Z,99.90
2022-07-25T07:43:25.039Z,99.90
2022-07-25T07:47:26.104Z,99.90
2022-07-25T07:51:23.193Z,99.90
2022-07-25T07:55:39.768Z,99.90
2022-07-25T07:59:36.895Z,99.90
2022-07-25T08:03:34.107Z,99.90
2022-07-25T08:07:31.276Z,99.90
2022-07-25T08:11:28.288Z,99.90
2022-07-25T08:15:26.445Z,99.90
2022-07-25T08:19:23.431Z,99.20
2022-07-25T08:23:20.643Z,97.60
2022-07-25T08:27:17.721Z,95.20
2022-07-25T08:31:14.855Z,94.30
2022-07-25T08:35:12.038Z,92.30
2022-07-25T08:39:09.049Z,90.10
2022-07-25T08:43:06.315Z,87.00
2022-07-25T08:47:03.793Z,83.50
2022-07-25T08:51:02.722Z,80.00
2022-07-25T08:54:59.897Z,78.00
2022-07-25T08:58:59.020Z,76.60
2022-07-25T09:03:06.542Z,73.00
2022-07-25T09:07:08.021Z,71.80
2022-07-25T09:11:05.554Z,68.70
2022-07-25T09:15:02.637Z,67.00
2022-07-25T09:19:21.329Z,66.50
2022-07-25T09:23:32.179Z,65.20
2022-07-25T09:27:34.475Z,64.70
2022-07-25T09:31:35.256Z,64.10
2022-07-25T09:35:38.343Z,61.40
2022-07-25T09:39:47.384Z,59.90
2022-07-25T09:43:45.619Z,59.00
2022-07-25T09:47:57.559Z,58.40
2022-07-25T09:51:55.294Z,58.10
2022-07-25T09:55:57.151Z,57.40
2022-07-25T09:59:54.666Z,57.20
2022-07-25T10:04:01.237Z,56.90
2022-07-25T10:07:58.791Z,55.90
2022-07-25T10:12:08.678Z,56.30
2022-07-25T10:16:20.531Z,56.50
2022-07-25T10:20:28.696Z,56.30
2022-07-25T10:24:35.021Z,54.30
2022-07-25T10:28:45.376Z,54.60
2022-07-25T10:33:04.497Z,53.20
2022-07-25T10:37:18.529Z,53.50
2022-07-25T10:41:19.297Z,53.20
2022-07-25T10:45:18.350Z,51.90
2022-07-25T10:49:32.265Z,51.70
2022-07-25T10:53:43.955Z,50.00
2022-07-25T10:57:55.012Z,49.30
2022-07-25T11:01:59.227Z,48.70
2022-07-25T11:05:56.342Z,47.60
2022-07-25T11:10:02.348Z,47.00
2022-07-25T11:13:59.520Z,46.80
2022-07-25T11:17:56.796Z,47.40
2022-07-25T11:21:57.805Z,45.90
2022-07-25T11:26:11.577Z,45.70
2022-07-25T11:30:22.121Z,45.20
2022-07-25T11:34:24.543Z,44.50
2022-07-25T11:38:21.676Z,45.20
2022-07-25T11:42:20.200Z,45.30
2022-07-25T11:46:18.561Z,43.40
2022-07-25T11:50:16.070Z,43.40
2022-07-25T11:54:13.861Z,42.70
2022-07-25T11:58:13.333Z,43.00
2022-07-25T12:02:26.580Z,42.10
2022-07-25T12:06:30.031Z,42.40
2022-07-25T12:10:36.380Z,41.60
2022-07-25T12:14:44.013Z,41.50
2022-07-25T12:18:41.501Z,41.70
2022-07-25T12:22:38.633Z,41.00
2022-07-25T12:26:36.079Z,40.00
2022-07-25T12:30:34.324Z,41.40
2022-07-25T12:34:31.624Z,42.10
2022-07-25T12:38:29.203Z,42.20
2022-07-25T12:42:28.915Z,41.90
2022-07-25T12:46:26.051Z,41.30
2022-07-25T12:50:26.007Z,40.70
2022-07-25T12:54:23.226Z,40.50
2022-07-25T12:58:21.241Z,40.80
2022-07-25T13:02:18.624Z,41.10
2022-07-25T13:06:15.794Z,41.20
2022-07-25T13:10:12.979Z,40.10
2022-07-25T13:14:10.117Z,39.10
2022-07-25T13:18:07.482Z,39.40
2022-07-25T13:22:04.508Z,38.70
2022-07-25T13:26:01.729Z,38.20
2022-07-25T13:29:58.736Z,38.20
2022-07-25T13:33:55.795Z,38.00
2022-07-25T13:37:52.850Z,39.60
2022-07-25T13:41:50.315Z,38.20
2022-07-25T13:45:47.425Z,37.70
2022-07-25T13:49:44.532Z,38.00
2022-07-25T13:53:42.596Z,38.00
2022-07-25T13:57:39.713Z,36.80
2022-07-25T14:01:36.895Z,35.90
2022-07-25T14:05:34.745Z,34.20
2022-07-25T14:09:31.693Z,34.20
2022-07-25T14:13:28.656Z,34.50
2022-07-25T14:17:29.947Z,34.60
2022-07-25T14:21:27.375Z,35.70
2022-07-25T14:25:24.475Z,36.60
2022-07-25T14:29:25.947Z,36.00
2022-07-25T14:33:28.023Z,35.50
2022-07-25T14:37:25.276Z,35.60
2022-07-25T14:41:22.619Z,37.20
2022-07-25T14:45:21.968Z,36.50
2022-07-25T14:49:19.375Z,36.60
2022-07-25T14:53:16.503Z,36.80
2022-07-25T14:57:13.664Z,36.80
2022-07-25T15:01:11.500Z,35.80
2022-07-25T15:05:09.064Z,35.60
2022-07-25T15:09:06.801Z,34.50
2022-07-25T15:13:28.676Z,32.00
2022-07-25T15:17:21.124Z,31.20
2022-07-25T15:21:18.234Z,31.10
2022-07-25T15:25:59.628Z,31.40
2022-07-25T15:29:32.215Z,32.50
2022-07-25T15:33:29.452Z,33.10
2022-07-25T15:37:28.134Z,32.70
2022-07-25T15:41:25.199Z,32.70
2022-07-25T15:45:38.025Z,31.00
2022-07-25T15:49:36.991Z,32.00
2022-07-25T15:53:34.045Z,32.60
2022-07-25T15:57:31.332Z,32.60
2022-07-25T16:01:28.384Z,33.00
2022-07-25T16:05:26.305Z,33.40
2022-07-25T16:09:23.880Z,34.10
2022-07-25T16:13:20.948Z,34.70
2022-07-25T16:17:18.403Z,35.40
2022-07-25T16:21:15.401Z,36.80
2022-07-25T16:25:12.678Z,38.30
2022-07-25T16:29:10.415Z,39.70
2022-07-25T16:33:09.274Z,41.10
2022-07-25T16:37:06.334Z,42.20
2022-07-25T16:41:03.476Z,43.30
2022-07-25T16:45:00.477Z,44.10
2022-07-25T16:48:57.607Z,44.90
2022-07-25T16:52:54.947Z,45.80
2022-07-25T16:56:54.820Z,46.30
2022-07-25T17:00:53.589Z,46.80
2022-07-25T17:04:50.598Z,47.20
2022-07-25T17:08:47.652Z,47.60
2022-07-25T17:12:44.621Z,48.10
2022-07-25T17:16:42.001Z,48.60
2022-07-25T17:20:39.019Z,49.10
2022-07-25T17:24:36.918Z,49.80
2022-07-25T17:28:34.988Z,52.80
2022-07-25T17:32:32.058Z,53.70
2022-07-25T17:36:29.174Z,55.00
2022-07-25T17:40:26.492Z,55.40
2022-07-25T17:44:23.418Z,54.90
2022-07-25T17:48:20.447Z,54.20
2022-07-25T17:52:17.997Z,55.70
2022-07-25T17:56:15.081Z,62.20
2022-07-25T18:00:13.736Z,63.40
2022-07-25T18:04:11.357Z,62.50
2022-07-25T18:08:10.464Z,61.80
2022-07-25T18:12:07.767Z,59.80
2022-07-25T18:16:05.347Z,61.60
2022-07-25T18:20:03.913Z,67.30
2022-07-25T18:24:01.007Z,66.20
2022-07-25T18:27:58.041Z,66.10
2022-07-25T18:31:55.013Z,65.30
2022-07-25T18:35:52.189Z,65.30
2022-07-25T18:39:49.178Z,64.80
2022-07-25T18:43:46.636Z,65.40
2022-07-25T18:47:45.227Z,64.90
2022-07-25T18:51:42.297Z,64.90
2022-07-25T18:55:39.417Z,65.90
2022-07-25T18:59:36.605Z,66.80
2022-07-25T19:03:34.954Z,67.50
2022-07-25T19:07:33.629Z,68.40
2022-07-25T19:11:30.733Z,69.10
2022-07-25T19:15:28.566Z,69.60
2022-07-25T19:19:27.010Z,69.90
2022-07-25T19:23:24.260Z,70.00
2022-07-25T19:27:23.899Z,69.70
2022-07-25T19:31:21.096Z,69.60
2022-07-25T19:35:25.847Z,70.30
2022-07-25T19:39:24.604Z,70.40
2022-07-25T19:43:21.744Z,70.90
2022-07-25T19:47:18.827Z,72.60
2022-07-25T19:51:15.847Z,71.20
2022-07-25T19:55:12.944Z,70.70
2022-07-25T19:59:10.187Z,71.10
2022-07-25T20:03:07.300Z,71.00
2022-07-25T20:07:04.537Z,72.90
2022-07-25T20:11:01.587Z,76.70
2022-07-25T20:14:58.602Z,79.30
2022-07-25T20:18:55.777Z,78.10
2022-07-25T20:22:53.364Z,78.60
2022-07-25T20:26:50.521Z,78.20
2022-07-25T20:30:47.617Z,78.50
2022-07-25T20:34:45.431Z,78.70
2022-07-25T20:38:42.453Z,81.00
2022-07-25T20:42:40.991Z,85.80
2022-07-25T20:46:39.115Z,90.60
2022-07-25T20:50:37.670Z,92.50
2022-07-25T20:54:36.770Z,94.00
2022-07-25T20:58:33.928Z,95.10
2022-07-25T21:02:30.957Z,96.30
2022-07-25T21:06:29.236Z,97.70
2022-07-25T21:10:28.335Z,98.70
2022-07-25T21:14:26.827Z,99.20
2022-07-25T21:18:23.827Z,99.90
2022-07-25T21:22:20.986Z,99.90
2022-07-25T21:26:18.831Z,99.90
2022-07-25T21:30:15.955Z,99.90
2022-07-25T21:34:12.962Z,99.90
2022-07-25T21:38:10.031Z,99.90
2022-07-25T21:42:09.973Z,99.90
2022-07-25T21:46:07.125Z,99.90
2022-07-25T21:50:24.826Z,95.90
2022-07-25T21:54:22.176Z,93.90
2022-07-25T21:58:21.607Z,93.10
2022-07-25T22:02:20.067Z,92.40
2022-07-25T22:06:17.134Z,92.10
2022-07-25T22:10:16.786Z,92.40
2022-07-25T22:14:15.664Z,92.60
2022-07-25T22:18:12.717Z,92.60
2022-07-25T22:22:09.836Z,93.00
2022-07-25T22:26:06.824Z,93.30
2022-07-25T22:30:05.733Z,93.80
2022-07-25T22:34:02.878Z,94.30
2022-07-25T22:37:59.921Z,94.80
2022-07-25T22:41:57.029Z,95.20
2022-07-25T22:45:54.069Z,95.50
2022-07-25T22:49:51.172Z,95.90
2022-07-25T22:53:48.220Z,96.30
2022-07-25T22:57:45.202Z,96.70
2022-07-25T23:01:42.279Z,97.20
2022-07-25T23:05:40.704Z,97.60
2022-07-25T23:09:37.926Z,97.80
2022-07-25T23:13:36.471Z,98.00
2022-07-25T23:17:33.615Z,98.10
2022-07-25T23:21:30.688Z,98.10
2022-07-25T23:25:27.759Z,98.20
2022-07-25T23:29:24.845Z,98.30
2022-07-25T23:33:25.998Z,98.50
2022-07-25T23:37:23.111Z,98.80
2022-07-25T23:41:20.379Z,99.10
2022-07-25T23:45:17.396Z,99.30
2022-07-25T23:49:16.127Z,99.60
2022-07-25T23:53:13.287Z,99.80
2022-07-25T23:57:10.757Z,99.90
